createdAt,value
2022-08-30T00:02:09.511Z,22.57
2022-08-30T00:05:15.971Z,22.61
2022-08-30T00:08:15.225Z,22.50
2022-08-30T00:11:23.742Z,22.49
2022-08-30T00:14:30.245Z,22.49
2022-08-30T00:17:35.410Z,22.51
2022-08-30T00:20:43.569Z,22.60
2022-08-30T00:23:48.774Z,22.78
2022-08-30T00:26:53.867Z,22.77
2022-08-30T00:29:59.613Z,22.68
2022-08-30T00:32:58.097Z,22.69
2022-08-30T00:36:04.280Z,22.73
2022-08-30T00:39:10.346Z,22.68
2022-08-30T00:42:16.004Z,22.65
2022-08-30T00:45:38.470Z,22.78
2022-08-30T00:48:45.754Z,22.66
2022-08-30T00:51:51.253Z,22.43
2022-08-30T00:54:57.951Z,22.29
2022-08-30T00:58:04.284Z,22.31
2022-08-30T01:01:12.658Z,22.17
2022-08-30T01:04:22.187Z,22.25
2022-08-30T01:07:27.351Z,22.24
2022-08-30T01:10:34.184Z,22.13
2022-08-30T01:13:40.007Z,22.01
2022-08-30T01:16:46.535Z,22.03
2022-08-30T01:20:13.598Z,22.02
2022-08-30T01:23:28.143Z,21.92
2022-08-30T01:26:33.734Z,21.89
2022-08-30T01:29:33.123Z,21.89
2022-08-30T01:32:29.571Z,22.00
2022-08-30T01:35:24.967Z,21.80
2022-08-30T01:38:10.549Z,21.84
2022-08-30T01:41:19.787Z,21.74
2022-08-30T01:44:15.465Z,21.98
2022-08-30T01:47:13.915Z,22.15
2022-08-30T01:50:21.218Z,21.85
2022-08-30T01:53:21.393Z,21.82
2022-08-30T01:56:14.442Z,21.50
2022-08-30T01:59:21.085Z,21.58
2022-08-30T02:02:27.050Z,21.45
2022-08-30T02:05:33.597Z,21.41
2022-08-30T02:08:39.015Z,21.35
2022-08-30T02:11:44.495Z,21.36
2022-08-30T02:14:50.824Z,21.34
2022-08-30T02:17:56.698Z,21.48
2022-08-30T02:21:02.612Z,21.40
2022-08-30T02:24:08.612Z,21.29
2022-08-30T02:27:15.286Z,21.32
2022-08-30T02:30:22.715Z,21.17
2022-08-30T02:33:28.743Z,21.24
2022-08-30T02:36:35.492Z,21.19
2022-08-30T02:39:41.876Z,21.21
2022-08-30T02:42:48.411Z,21.18
2022-08-30T02:45:53.760Z,21.30
2022-08-30T02:49:13.040Z,21.25
2022-08-30T02:52:09.083Z,21.16
2022-08-30T02:55:07.566Z,21.18
2022-08-30T02:57:59.952Z,21.06
2022-08-30T03:01:05.795Z,21.04
2022-08-30T03:04:12.182Z,21.08
2022-08-30T03:07:18.915Z,21.22
2022-08-30T03:10:24.354Z,21.30
2022-08-30T03:13:30.261Z,21.38
2022-08-30T03:16:36.817Z,21.32
2022-08-30T03:19:43.149Z,21.49
2022-08-30T03:22:48.682Z,21.76
2022-08-30T03:25:54.229Z,21.89
2022-08-30T03:29:00.833Z,21.82
2022-08-30T03:32:07.162Z,21.92
2022-08-30T03:35:13.640Z,21.93
2022-08-30T03:38:20.391Z,22.22
2022-08-30T03:41:26.700Z,22.20
2022-08-30T03:44:32.227Z,22.46
2022-08-30T03:47:37.606Z,22.48
2022-08-30T03:50:44.929Z,22.63
2022-08-30T03:53:50.555Z,22.73
2022-08-30T03:56:57.444Z,23.11
2022-08-30T04:00:04.310Z,23.23
2022-08-30T04:03:13.752Z,23.37
2022-08-30T04:06:20.155Z,23.49
2022-08-30T04:09:26.759Z,23.62
2022-08-30T04:12:32.321Z,23.81
2022-08-30T04:15:38.720Z,23.70
2022-08-30T04:18:44.584Z,23.80
2022-08-30T04:21:49.888Z,24.01
2022-08-30T04:24:55.371Z,24.29
2022-08-30T04:28:02.847Z,24.63
2022-08-30T04:31:11.812Z,24.91
2022-08-30T04:34:18.823Z,25.02
2022-08-30T04:37:24.346Z,24.96
2022-08-30T04:40:31.184Z,25.20
2022-08-30T04:43:36.806Z,25.36
2022-08-30T04:46:37.286Z,25.68
2022-08-30T04:49:24.607Z,25.86
2022-08-30T04:52:17.899Z,25.91
2022-08-30T04:55:11.875Z,25.99
2022-08-30T04:58:17.501Z,26.10
2022-08-30T05:01:29.303Z,26.36
2022-08-30T05:04:35.484Z,26.56
2022-08-30T05:07:41.339Z,26.74
2022-08-30T05:10:47.959Z,26.97
2022-08-30T05:13:53.533Z,27.20
2022-08-30T05:16:58.802Z,27.47
2022-08-30T05:20:04.314Z,27.77
2022-08-30T05:23:10.540Z,27.85
2022-08-30T05:26:27.071Z,27.84
2022-08-30T05:29:26.718Z,27.96
2022-08-30T05:32:35.439Z,28.04
2022-08-30T05:35:43.316Z,28.18
2022-08-30T05:38:49.366Z,28.37
2022-08-30T05:41:56.006Z,28.44
2022-08-30T05:45:03.590Z,28.65
2022-08-30T05:48:09.212Z,28.80
2022-08-30T05:51:25.238Z,28.89
2022-08-30T05:54:30.651Z,29.06
2022-08-30T05:57:36.895Z,29.34
2022-08-30T06:00:44.687Z,29.57
2022-08-30T06:03:50.234Z,29.67
2022-08-30T06:06:58.532Z,29.96
2022-08-30T06:10:04.498Z,30.25
2022-08-30T06:13:13.764Z,30.37
2022-08-30T06:16:21.867Z,30.54
2022-08-30T06:19:27.435Z,30.58
2022-08-30T06:22:32.417Z,30.61
2022-08-30T06:25:41.888Z,30.90
2022-08-30T06:28:45.363Z,31.15
2022-08-30T06:31:52.130Z,31.13
2022-08-30T06:34:57.952Z,31.13
2022-08-30T06:38:04.111Z,31.36
2022-08-30T06:41:10.328Z,31.51
2022-08-30T06:44:16.668Z,31.80
2022-08-30T06:47:21.759Z,31.80
2022-08-30T06:50:20.714Z,31.90
2022-08-30T06:53:19.530Z,31.99
2022-08-30T06:56:27.798Z,32.21
2022-08-30T06:59:33.500Z,32.28
2022-08-30T07:02:39.047Z,32.29
2022-08-30T07:09:33.675Z,32.70
2022-08-30T07:12:40.564Z,32.87
2022-08-30T07:15:47.010Z,32.82
2022-08-30T07:18:58.293Z,32.82
2022-08-30T07:21:57.487Z,32.93
2022-08-30T07:24:50.023Z,33.10
2022-08-30T07:27:58.817Z,33.17
2022-08-30T07:31:04.384Z,33.29
2022-08-30T07:34:02.964Z,33.33
2022-08-30T07:37:08.088Z,33.41
2022-08-30T07:40:13.651Z,33.52
2022-08-30T07:43:19.414Z,33.72
2022-08-30T07:46:24.879Z,33.70
2022-08-30T07:49:29.971Z,33.68
2022-08-30T07:52:35.595Z,33.69
2022-08-30T07:55:41.270Z,33.69
2022-08-30T07:58:39.741Z,33.82
2022-08-30T08:01:33.476Z,33.91
2022-08-30T08:04:38.432Z,33.84
2022-08-30T08:07:43.965Z,34.02
2022-08-30T08:10:51.075Z,34.03
2022-08-30T08:14:00.321Z,34.16
2022-08-30T08:17:05.878Z,34.13
2022-08-30T08:20:13.083Z,34.14
2022-08-30T08:23:18.858Z,34.14
2022-08-30T08:26:25.053Z,34.04
2022-08-30T08:29:30.658Z,34.21
2022-08-30T08:32:36.015Z,34.16
2022-08-30T08:35:41.351Z,34.21
2022-08-30T08:38:46.575Z,34.36
2022-08-30T08:42:06.217Z,34.30
2022-08-30T08:45:21.428Z,34.44
2022-08-30T08:49:00.575Z,34.34
2022-08-30T08:52:21.125Z,34.31
2022-08-30T08:55:28.752Z,34.43
2022-08-30T08:58:42.111Z,34.42
2022-08-30T09:01:48.521Z,34.48
2022-08-30T09:04:54.546Z,34.47
2022-08-30T09:08:05.506Z,34.55
2022-08-30T09:11:22.176Z,34.52
2022-08-30T09:14:32.981Z,34.63
2022-08-30T09:17:39.912Z,34.58
2022-08-30T09:20:50.228Z,34.60
2022-08-30T09:24:06.001Z,34.69
2022-08-30T09:27:10.791Z,34.62
2022-08-30T09:30:27.178Z,34.65
2022-08-30T09:33:35.590Z,34.61
2022-08-30T09:36:44.011Z,34.66
2022-08-30T09:39:52.531Z,34.79
2022-08-30T09:43:06.813Z,35.04
2022-08-30T09:46:16.258Z,35.09
2022-08-30T09:49:25.612Z,34.98
2022-08-30T09:52:55.408Z,35.00
2022-08-30T09:56:10.798Z,34.81
2022-08-30T09:59:30.793Z,34.79
2022-08-30T10:03:06.660Z,34.80
2022-08-30T10:06:27.977Z,34.80
2022-08-30T10:09:41.221Z,34.95
2022-08-30T10:13:09.397Z,34.96
2022-08-30T10:16:45.312Z,35.02
2022-08-30T10:20:09.312Z,35.19
2022-08-30T10:23:27.949Z,35.28
2022-08-30T10:26:44.355Z,35.32
2022-08-30T10:30:06.495Z,35.49
2022-08-30T10:33:34.697Z,35.68
2022-08-30T10:36:46.715Z,35.67
2022-08-30T10:40:11.071Z,35.70
2022-08-30T10:43:22.590Z,35.71
2022-08-30T10:46:47.343Z,35.95
2022-08-30T10:50:00.611Z,35.82
2022-08-30T10:53:12.531Z,35.90
2022-08-30T10:56:26.569Z,36.02
2022-08-30T10:59:32.999Z,36.28
2022-08-30T11:02:51.771Z,36.28
2022-08-30T11:06:23.908Z,36.33
2022-08-30T11:09:39.799Z,36.52
2022-08-30T11:12:58.326Z,36.52
2022-08-30T11:16:27.280Z,36.52
2022-08-30T11:19:41.846Z,36.39
2022-08-30T11:22:51.445Z,36.35
2022-08-30T11:26:20.756Z,36.41
2022-08-30T11:29:20.492Z,36.42
2022-08-30T11:32:38.652Z,36.17
2022-08-30T11:36:01.267Z,36.15
2022-08-30T11:39:11.653Z,36.25
2022-08-30T11:46:11.390Z,36.14
2022-08-30T11:49:36.342Z,36.18
2022-08-30T11:53:20.813Z,36.32
2022-08-30T11:56:37.179Z,36.70
2022-08-30T12:00:15.878Z,36.81
2022-08-30T12:03:42.260Z,36.73
2022-08-30T12:07:15.050Z,36.89
2022-08-30T12:10:20.517Z,36.76
2022-08-30T12:13:44.997Z,36.80
2022-08-30T12:17:17.820Z,36.70
2022-08-30T12:20:37.494Z,36.57
2022-08-30T12:24:08.124Z,36.29
2022-08-30T12:27:10.350Z,36.25
2022-08-30T12:30:20.896Z,35.76
2022-08-30T12:33:29.323Z,35.73
2022-08-30T12:36:51.134Z,35.57
2022-08-30T12:39:58.537Z,35.55
2022-08-30T12:43:14.557Z,35.56
2022-08-30T12:46:24.296Z,35.64
2022-08-30T12:49:32.588Z,35.69
2022-08-30T12:52:57.089Z,35.55
2022-08-30T12:56:21.249Z,35.44
2022-08-30T12:59:23.182Z,35.38
2022-08-30T13:02:34.152Z,35.47
2022-08-30T13:05:52.807Z,35.54
2022-08-30T13:09:03.594Z,35.61
2022-08-30T13:12:09.204Z,35.67
2022-08-30T13:15:32.834Z,35.66
2022-08-30T13:18:43.527Z,35.62
2022-08-30T13:21:50.257Z,35.57
2022-08-30T13:24:55.388Z,35.87
2022-08-30T13:28:01.552Z,35.81
2022-08-30T13:31:06.641Z,35.98
2022-08-30T13:34:12.197Z,35.91
2022-08-30T13:40:26.726Z,35.57
2022-08-30T13:44:08.892Z,35.47
2022-08-30T13:46:38.748Z,35.43
2022-08-30T13:49:49.907Z,35.41
2022-08-30T13:52:56.603Z,35.41
2022-08-30T13:56:02.170Z,35.38
2022-08-30T13:59:08.149Z,35.23
2022-08-30T14:02:13.329Z,35.21
2022-08-30T14:08:45.250Z,35.20
2022-08-30T14:11:35.550Z,35.01
2022-08-30T14:14:42.996Z,34.89
2022-08-30T14:17:47.142Z,34.82
2022-08-30T14:20:52.461Z,34.76
2022-08-30T14:23:58.407Z,34.65
2022-08-30T14:27:05.259Z,34.64
2022-08-30T14:30:11.945Z,34.68
2022-08-30T14:33:17.523Z,34.62
2022-08-30T14:36:23.222Z,34.54
2022-08-30T14:39:26.833Z,34.55
2022-08-30T14:42:26.516Z,34.52
2022-08-30T14:45:31.858Z,34.50
2022-08-30T14:48:37.357Z,34.58
2022-08-30T14:51:44.844Z,34.51
2022-08-30T14:54:54.247Z,34.40
2022-08-30T14:57:57.666Z,34.30
2022-08-30T15:01:07.252Z,34.30
2022-08-30T15:04:12.950Z,34.22
2022-08-30T15:07:18.307Z,34.23
2022-08-30T15:10:26.903Z,33.15
2022-08-30T15:13:32.544Z,31.87
2022-08-30T15:16:42.171Z,32.04
2022-08-30T15:19:47.425Z,32.11
2022-08-30T15:22:54.986Z,31.49
2022-08-30T15:26:01.436Z,31.74
2022-08-30T15:29:08.045Z,31.24
2022-08-30T15:32:13.406Z,31.44
2022-08-30T15:35:13.537Z,31.59
2022-08-30T15:38:19.643Z,31.62
2022-08-30T15:41:27.483Z,31.55
2022-08-30T15:44:34.443Z,31.33
2022-08-30T15:47:40.662Z,31.33
2022-08-30T15:50:46.276Z,31.24
2022-08-30T15:53:51.773Z,31.10
2022-08-30T15:57:00.231Z,31.03
2022-08-30T16:00:08.003Z,30.87
2022-08-30T16:03:14.686Z,30.75
2022-08-30T16:06:19.495Z,30.65
2022-08-30T16:09:25.817Z,30.56
2022-08-30T16:12:32.766Z,30.02
2022-08-30T16:15:37.905Z,29.89
2022-08-30T16:18:43.654Z,29.74
2022-08-30T16:21:51.301Z,29.68
2022-08-30T16:24:56.929Z,29.46
2022-08-30T16:28:02.047Z,29.39
2022-08-30T16:31:07.082Z,29.26
2022-08-30T16:34:14.088Z,29.21
2022-08-30T16:37:13.756Z,29.15
2022-08-30T16:40:19.306Z,29.02
2022-08-30T16:43:24.659Z,28.98
2022-08-30T16:46:31.174Z,28.90
2022-08-30T16:49:38.114Z,28.78
2022-08-30T16:52:44.439Z,28.69
2022-08-30T16:55:51.671Z,28.43
2022-08-30T16:59:02.197Z,28.39
2022-08-30T17:02:05.606Z,28.31
2022-08-30T17:05:12.244Z,28.26
2022-08-30T17:08:13.964Z,28.16
2022-08-30T17:10:59.615Z,28.20
2022-08-30T17:13:52.504Z,28.22
2022-08-30T17:16:45.272Z,28.31
2022-08-30T17:19:50.023Z,28.35
2022-08-30T17:22:56.700Z,28.44
2022-08-30T17:26:04.364Z,28.31
2022-08-30T17:29:10.867Z,28.33
2022-08-30T17:32:17.444Z,28.39
2022-08-30T17:35:23.707Z,28.33
2022-08-30T17:38:30.434Z,28.36
2022-08-30T17:41:36.760Z,27.88
2022-08-30T17:44:43.046Z,27.45
2022-08-30T17:47:48.792Z,27.34
2022-08-30T17:50:56.067Z,27.47
2022-08-30T17:54:02.715Z,27.45
2022-08-30T17:57:10.959Z,27.31
2022-08-30T18:00:17.867Z,27.22
2022-08-30T18:03:23.722Z,27.41
2022-08-30T18:06:29.431Z,27.35
2022-08-30T18:09:35.343Z,27.14
2022-08-30T18:12:42.518Z,27.08
2022-08-30T18:15:48.064Z,27.06
2022-08-30T18:18:57.177Z,26.91
2022-08-30T18:22:03.419Z,26.90
2022-08-30T18:25:09.812Z,26.76
2022-08-30T18:28:16.292Z,26.70
2022-08-30T18:31:24.567Z,26.61
2022-08-30T18:34:30.243Z,26.56
2022-08-30T18:37:35.664Z,26.68
2022-08-30T18:40:42.401Z,26.53
2022-08-30T18:43:48.875Z,26.44
2022-08-30T18:46:56.797Z,26.45
2022-08-30T18:49:55.351Z,26.35
2022-08-30T18:53:01.050Z,26.23
2022-08-30T18:56:07.960Z,26.25
2022-08-30T18:59:13.741Z,26.20
2022-08-30T19:02:22.019Z,26.16
2022-08-30T19:05:30.700Z,26.07
2022-08-30T19:08:38.082Z,26.02
2022-08-30T19:11:38.348Z,25.99
2022-08-30T19:14:44.826Z,26.09
2022-08-30T19:17:50.041Z,25.89
2022-08-30T19:20:57.423Z,25.87
2022-08-30T19:24:03.601Z,26.02
2022-08-30T19:27:10.378Z,25.80
2022-08-30T19:30:20.112Z,25.55
2022-08-30T19:33:23.772Z,25.48
2022-08-30T19:36:29.311Z,25.52
2022-08-30T19:39:34.354Z,25.51
2022-08-30T19:42:45.765Z,25.62
2022-08-30T19:45:46.289Z,25.67
2022-08-30T19:48:53.434Z,25.58
2022-08-30T19:51:59.023Z,25.28
2022-08-30T19:55:04.636Z,25.18
2022-08-30T19:58:11.509Z,24.99
2022-08-30T20:01:33.654Z,25.01
2022-08-30T20:04:25.177Z,25.03
2022-08-30T20:07:27.495Z,24.93
2022-08-30T20:10:31.711Z,24.93
2022-08-30T20:13:37.405Z,24.83
2022-08-30T20:16:43.875Z,24.86
2022-08-30T20:19:52.710Z,24.87
2022-08-30T20:22:58.326Z,24.71
2022-08-30T20:26:03.941Z,24.68
2022-08-30T20:29:09.545Z,24.63
2022-08-30T20:32:15.408Z,24.60
2022-08-30T20:35:22.951Z,24.79
2022-08-30T20:38:28.747Z,24.79
2022-08-30T20:41:36.291Z,24.67
2022-08-30T20:44:41.620Z,24.64
2022-08-30T20:47:48.286Z,24.35
2022-08-30T20:50:54.207Z,24.34
2022-08-30T20:54:01.778Z,24.17
2022-08-30T20:57:08.124Z,24.22
2022-08-30T21:00:16.081Z,24.12
2022-08-30T21:03:27.262Z,24.18
2022-08-30T21:06:30.404Z,24.24
2022-08-30T21:09:37.137Z,24.26
2022-08-30T21:12:44.879Z,24.27
2022-08-30T21:15:53.276Z,24.52
2022-08-30T21:19:00.583Z,24.57
2022-08-30T21:22:07.014Z,24.58
2022-08-30T21:25:11.739Z,24.55
2022-08-30T21:28:18.582Z,24.52
2022-08-30T21:31:27.115Z,24.59
2022-08-30T21:34:32.611Z,24.69
2022-08-30T21:37:38.164Z,24.70
2022-08-30T21:40:38.177Z,24.77
2022-08-30T21:43:36.789Z,24.89
2022-08-30T21:46:42.207Z,25.01
2022-08-30T21:49:47.782Z,24.83
2022-08-30T21:52:54.118Z,24.85
2022-08-30T21:56:01.608Z,24.94
2022-08-30T21:59:07.581Z,25.09
2022-08-30T22:02:12.217Z,25.26
2022-08-30T22:05:18.308Z,25.08
2022-08-30T22:08:24.697Z,25.11
2022-08-30T22:11:32.970Z,25.08
2022-08-30T22:14:38.118Z,25.23
2022-08-30T22:17:44.810Z,25.34
2022-08-30T22:20:50.705Z,25.38
2022-08-30T22:23:56.518Z,25.24
2022-08-30T22:27:02.113Z,25.24
2022-08-30T22:30:07.619Z,25.15
2022-08-30T22:33:12.866Z,25.07
2022-08-30T22:36:32.537Z,25.13
2022-08-30T22:39:36.523Z,25.09
2022-08-30T22:42:35.788Z,24.82
2022-08-30T22:45:43.079Z,24.82
2022-08-30T22:48:51.283Z,24.58
2022-08-30T22:51:56.435Z,24.67
2022-08-30T22:55:01.232Z,24.66
2022-08-30T22:58:07.778Z,24.48
2022-08-30T23:01:14.407Z,24.58
2022-08-30T23:04:21.213Z,24.51
2022-08-30T23:07:27.754Z,24.46
2022-08-30T23:10:35.347Z,24.44
2022-08-30T23:13:41.261Z,24.32
2022-08-30T23:16:46.624Z,24.39
2022-08-30T23:19:51.739Z,24.56
2022-08-30T23:23:07.500Z,24.55
2022-08-30T23:26:32.746Z,24.70
2022-08-30T23:29:56.246Z,24.56
2022-08-30T23:33:20.024Z,24.50
2022-08-30T23:36:45.367Z,24.69
2022-08-30T23:40:07.981Z,24.76
2022-08-30T23:43:30.725Z,24.82
2022-08-30T23:46:54.680Z,24.78
2022-08-30T23:50:18.812Z,24.52
2022-08-30T23:53:43.683Z,24.54
2022-08-30T23:57:07.595Z,24.61
